createdAt,value
2019-05-07T00:00:43.770Z,79.38
2019-05-07T00:01:42.314Z,79.38
2019-05-07T00:02:42.796Z,79.29
2019-05-07T00:03:42.267Z,78.81
2019-05-07T00:04:42.859Z,78.72
2019-05-07T00:05:42.787Z,78.06
2019-05-07T00:06:43.458Z,79.10
2019-05-07T00:07:42.542Z,78.63
2019-05-07T00:08:44.615Z,78.81
2019-05-07T00:09:43.098Z,78.81
2019-05-07T00:10:42.468Z,78.63
2019-05-07T00:11:42.611Z,78.53
2019-05-07T00:12:43.107Z,78.63
2019-05-07T00:13:44.087Z,78.63
2019-05-07T00:14:42.898Z,78.81
2019-05-07T00:15:42.036Z,78.16
2019-05-07T00:16:42.295Z,78.25
2019-05-07T00:17:42.890Z,78.34
2019-05-07T00:18:42.910Z,78.06
2019-05-07T00:19:43.155Z,78.16
2019-05-07T00:20:42.470Z,77.87
2019-05-07T00:21:42.437Z,77.87
2019-05-07T00:22:42.002Z,77.87
2019-05-07T00:23:43.293Z,77.87
2019-05-07T00:24:42.630Z,77.87
2019-05-07T00:25:42.305Z,77.87
2019-05-07T00:26:43.036Z,77.97
2019-05-07T00:27:42.730Z,77.78
2019-05-07T00:28:43.199Z,78.16
2019-05-07T00:29:42.958Z,78.16
2019-05-07T00:30:42.499Z,78.34
2019-05-07T00:31:42.123Z,78.25
2019-05-07T00:32:42.438Z,78.25
2019-05-07T00:33:43.302Z,78.25
2019-05-07T00:34:42.505Z,78.16
2019-05-07T00:35:42.923Z,78.16
2019-05-07T00:36:42.163Z,78.06
2019-05-07T00:37:43.103Z,77.87
2019-05-07T00:38:42.771Z,78.06
2019-05-07T00:39:42.482Z,77.87
2019-05-07T00:40:42.579Z,78.06
2019-05-07T00:41:42.725Z,78.06
2019-05-07T00:42:42.177Z,77.97
2019-05-07T00:43:42.870Z,77.78
2019-05-07T00:44:42.283Z,78.16
2019-05-07T00:45:42.200Z,78.06
2019-05-07T00:46:42.754Z,78.06
2019-05-07T00:47:42.565Z,78.06
2019-05-07T00:48:42.368Z,78.06
2019-05-07T00:49:42.595Z,78.16
2019-05-07T00:50:42.115Z,77.40
2019-05-07T00:51:42.519Z,77.50
2019-05-07T00:52:42.972Z,77.87
2019-05-07T00:53:42.424Z,77.97
2019-05-07T00:54:42.332Z,78.16
2019-05-07T00:55:42.360Z,78.06
2019-05-07T00:56:42.927Z,78.06
2019-05-07T00:57:42.856Z,78.44
2019-05-07T00:58:42.839Z,78.72
2019-05-07T00:59:42.937Z,78.81
2019-05-07T01:00:42.175Z,78.53
2019-05-07T01:01:43.202Z,78.81
2019-05-07T01:02:43.073Z,78.34
2019-05-07T01:03:42.509Z,78.81
2019-05-07T01:04:42.339Z,79.44
2019-05-07T01:05:43.259Z,79.63
2019-05-07T01:06:42.465Z,79.53
2019-05-07T01:07:42.106Z,79.82
2019-05-07T01:08:43.018Z,79.91
2019-05-07T01:09:43.041Z,80.00
2019-05-07T01:10:42.174Z,79.91
2019-05-07T01:11:42.885Z,79.82
2019-05-07T01:12:42.425Z,80.00
2019-05-07T01:13:43.130Z,79.53
2019-05-07T01:14:42.111Z,79.44
2019-05-07T01:15:42.936Z,78.87
2019-05-07T01:16:42.306Z,79.00
2019-05-07T01:17:42.598Z,78.78
2019-05-07T01:18:42.261Z,78.78
2019-05-07T01:19:42.389Z,78.78
2019-05-07T01:20:42.502Z,79.25
2019-05-07T01:21:43.213Z,79.72
2019-05-07T01:22:42.517Z,79.53
2019-05-07T01:23:42.818Z,79.53
2019-05-07T01:24:42.942Z,80.00
2019-05-07T01:25:43.034Z,80.57
2019-05-07T01:26:42.680Z,80.57
2019-05-07T01:27:42.784Z,80.48
2019-05-07T01:28:42.197Z,80.66
2019-05-07T01:29:43.055Z,80.29
2019-05-07T01:30:43.266Z,80.00
2019-05-07T01:31:43.103Z,80.00
2019-05-07T01:32:42.590Z,80.10
2019-05-07T01:33:42.437Z,80.29
2019-05-07T01:34:42.938Z,80.19
2019-05-07T01:35:42.413Z,79.63
2019-05-07T01:36:42.783Z,79.72
2019-05-07T01:37:42.282Z,79.35
2019-05-07T01:38:42.789Z,79.16
2019-05-07T01:39:42.324Z,79.25
2019-05-07T01:40:42.830Z,79.25
2019-05-07T01:41:42.227Z,79.16
2019-05-07T01:42:42.462Z,79.25
2019-05-07T01:43:42.882Z,79.35
2019-05-07T01:44:42.245Z,79.44
2019-05-07T01:45:48.773Z,79.44
2019-05-07T01:46:42.323Z,79.16
2019-05-07T01:47:42.612Z,78.68
2019-05-07T01:48:42.943Z,78.87
2019-05-07T01:49:42.432Z,79.06
2019-05-07T01:50:42.889Z,79.25
2019-05-07T01:51:42.455Z,78.87
2019-05-07T01:52:42.753Z,78.31
2019-05-07T01:53:43.038Z,79.06
2019-05-07T01:54:42.667Z,78.40
2019-05-07T01:55:42.886Z,78.40
2019-05-07T01:56:42.823Z,78.97
2019-05-07T01:57:42.318Z,78.31
2019-05-07T01:58:42.622Z,78.50
2019-05-07T01:59:42.837Z,78.50
2019-05-07T02:00:42.645Z,78.50
2019-05-07T02:01:42.956Z,78.68
2019-05-07T02:02:42.611Z,78.59
2019-05-07T02:03:42.357Z,78.59
2019-05-07T02:04:42.720Z,78.68
2019-05-07T02:05:42.524Z,78.12
2019-05-07T02:06:42.911Z,78.02
2019-05-07T02:07:42.905Z,78.21
2019-05-07T02:08:42.494Z,78.59
2019-05-07T02:09:42.567Z,78.59
2019-05-07T02:10:42.857Z,78.02
2019-05-07T02:11:42.395Z,78.31
2019-05-07T02:12:42.601Z,77.83
2019-05-07T02:13:42.406Z,78.21
2019-05-07T02:14:42.411Z,77.93
2019-05-07T02:15:46.797Z,77.74
2019-05-07T02:16:42.423Z,77.55
2019-05-07T02:17:42.973Z,76.89
2019-05-07T02:18:42.594Z,77.45
2019-05-07T02:19:42.604Z,76.70
2019-05-07T02:20:42.700Z,76.70
2019-05-07T02:21:42.535Z,76.79
2019-05-07T02:22:42.827Z,75.95
2019-05-07T02:23:42.723Z,75.85
2019-05-07T02:24:43.438Z,75.28
2019-05-07T02:25:42.469Z,74.81
2019-05-07T02:26:42.827Z,74.90
2019-05-07T02:27:42.488Z,74.71
2019-05-07T02:28:42.787Z,75.00
2019-05-07T02:29:43.061Z,75.85
2019-05-07T02:30:44.543Z,75.85
2019-05-07T02:31:44.086Z,75.85
2019-05-07T02:32:43.347Z,76.14
2019-05-07T02:33:43.377Z,76.04
2019-05-07T02:34:44.159Z,76.32
2019-05-07T02:35:43.923Z,76.14
2019-05-07T02:36:43.466Z,76.61
2019-05-07T02:37:50.831Z,76.70
2019-05-07T02:38:44.193Z,76.89
2019-05-07T02:39:44.389Z,77.08
2019-05-07T02:40:43.342Z,76.98
2019-05-07T02:41:44.005Z,77.83
2019-05-07T02:42:44.300Z,78.59
2019-05-07T02:43:43.077Z,78.68
2019-05-07T02:44:43.775Z,79.25
2019-05-07T02:45:43.982Z,79.53
2019-05-07T02:46:43.330Z,79.06
2019-05-07T02:47:43.694Z,79.16
2019-05-07T02:48:43.020Z,79.06
2019-05-07T02:49:43.837Z,78.31
2019-05-07T02:50:43.733Z,78.21
2019-05-07T02:51:43.753Z,78.21
2019-05-07T02:52:43.763Z,77.74
2019-05-07T02:53:43.186Z,78.02
2019-05-07T02:54:43.694Z,77.83
2019-05-07T02:55:43.502Z,77.83
2019-05-07T02:56:43.445Z,78.12
2019-05-07T02:57:43.548Z,77.74
2019-05-07T02:58:43.392Z,77.83
2019-05-07T02:59:44.033Z,77.93
2019-05-07T03:00:43.576Z,77.83
2019-05-07T03:01:43.389Z,78.02
2019-05-07T03:02:43.719Z,77.36
2019-05-07T03:03:44.884Z,76.89
2019-05-07T03:04:43.533Z,76.70
2019-05-07T03:05:43.399Z,76.14
2019-05-07T03:06:44.281Z,75.76
2019-05-07T03:07:42.982Z,75.38
2019-05-07T03:08:43.996Z,75.66
2019-05-07T03:09:43.313Z,75.76
2019-05-07T03:10:43.490Z,75.85
2019-05-07T03:11:43.497Z,76.70
2019-05-07T03:12:43.121Z,76.79
2019-05-07T03:13:43.355Z,75.85
2019-05-07T03:14:43.772Z,75.00
2019-05-07T03:15:43.542Z,74.15
2019-05-07T03:16:47.847Z,73.96
2019-05-07T03:17:43.155Z,73.68
2019-05-07T03:18:43.792Z,73.49
2019-05-07T03:19:43.191Z,73.68
2019-05-07T03:20:43.126Z,73.49
2019-05-07T03:21:44.069Z,74.24
2019-05-07T03:22:43.088Z,74.62
2019-05-07T03:23:43.040Z,74.43
2019-05-07T03:24:43.567Z,75.09
2019-05-07T03:25:43.198Z,75.09
2019-05-07T03:26:43.436Z,75.09
2019-05-07T03:27:43.249Z,75.28
2019-05-07T03:28:42.832Z,73.68
2019-05-07T03:29:44.163Z,73.86
2019-05-07T03:30:45.609Z,73.68
2019-05-07T03:31:46.675Z,73.86
2019-05-07T03:32:47.425Z,73.96
2019-05-07T03:33:47.228Z,74.34
2019-05-07T03:34:46.586Z,74.71
2019-05-07T03:35:46.356Z,74.15
2019-05-07T03:36:47.537Z,74.05
2019-05-07T03:37:44.184Z,74.34
2019-05-07T03:38:43.904Z,74.53
2019-05-07T03:39:43.440Z,74.71
2019-05-07T03:40:44.793Z,74.43
2019-05-07T03:41:43.455Z,73.96
2019-05-07T03:42:44.022Z,74.34
2019-05-07T03:43:43.586Z,74.24
2019-05-07T03:44:44.539Z,74.43
2019-05-07T03:45:43.467Z,73.96
2019-05-07T03:46:54.550Z,73.86
2019-05-07T03:47:43.941Z,73.11
2019-05-07T03:48:44.084Z,72.92
2019-05-07T03:49:43.124Z,72.92
2019-05-07T03:50:43.411Z,72.92
2019-05-07T03:51:44.170Z,72.92
2019-05-07T03:52:43.156Z,73.39
2019-05-07T03:53:43.889Z,74.05
2019-05-07T03:54:43.263Z,73.86
2019-05-07T03:55:44.709Z,74.15
2019-05-07T03:56:43.635Z,74.34
2019-05-07T03:57:43.923Z,74.81
2019-05-07T03:58:43.649Z,74.24
2019-05-07T03:59:43.442Z,74.15
2019-05-07T04:00:44.266Z,73.96
2019-05-07T04:01:43.231Z,74.34
2019-05-07T04:02:43.891Z,74.81
2019-05-07T04:03:44.725Z,74.71
2019-05-07T04:04:43.418Z,75.09
2019-05-07T04:05:43.568Z,74.81
2019-05-07T04:06:43.575Z,75.28
2019-05-07T04:07:43.389Z,75.00
2019-05-07T04:08:43.542Z,75.38
2019-05-07T04:09:43.739Z,75.85
2019-05-07T04:10:44.337Z,75.76
2019-05-07T04:11:43.428Z,75.76
2019-05-07T04:12:44.290Z,75.95
2019-05-07T04:13:44.177Z,75.95
2019-05-07T04:14:43.436Z,75.00
2019-05-07T04:15:43.989Z,74.62
2019-05-07T04:16:44.090Z,74.62
2019-05-07T04:17:43.203Z,74.34
2019-05-07T04:18:43.996Z,73.86
2019-05-07T04:19:44.010Z,74.53
2019-05-07T04:20:43.799Z,74.81
2019-05-07T04:21:43.575Z,74.90
2019-05-07T04:22:43.516Z,75.28
2019-05-07T04:23:43.873Z,75.76
2019-05-07T04:24:43.114Z,75.76
2019-05-07T04:25:43.675Z,76.14
2019-05-07T04:26:43.132Z,76.04
2019-05-07T04:27:46.920Z,76.14
2019-05-07T04:28:43.737Z,75.66
2019-05-07T04:29:43.161Z,75.57
2019-05-07T04:30:43.754Z,75.28
2019-05-07T04:31:43.957Z,74.62
2019-05-07T04:32:43.469Z,74.24
2019-05-07T04:33:43.908Z,74.43
2019-05-07T04:34:44.451Z,73.86
2019-05-07T04:35:43.640Z,73.96
2019-05-07T04:36:43.861Z,73.58
2019-05-07T04:37:43.178Z,73.49
2019-05-07T04:38:43.967Z,72.83
2019-05-07T04:39:43.201Z,71.98
2019-05-07T04:40:43.695Z,71.88
2019-05-07T04:41:43.645Z,71.88
2019-05-07T04:42:43.209Z,72.17
2019-05-07T04:43:43.705Z,72.64
2019-05-07T04:44:43.823Z,73.77
2019-05-07T04:45:43.666Z,73.21
2019-05-07T04:46:47.118Z,72.17
2019-05-07T04:47:47.558Z,71.31
2019-05-07T04:48:44.132Z,70.56
2019-05-07T04:49:43.723Z,70.28
2019-05-07T04:50:47.335Z,70.47
2019-05-07T04:51:43.575Z,70.75
2019-05-07T04:52:43.846Z,70.94
2019-05-07T04:53:43.297Z,71.41
2019-05-07T04:54:43.855Z,71.60
2019-05-07T04:55:43.322Z,72.11
2019-05-07T04:56:43.839Z,71.98
2019-05-07T04:57:43.965Z,71.50
2019-05-07T04:58:43.605Z,71.54
2019-05-07T04:59:43.300Z,71.54
2019-05-07T05:00:43.492Z,71.22
2019-05-07T05:01:43.715Z,71.41
2019-05-07T05:02:43.630Z,71.31
2019-05-07T05:03:43.837Z,71.12
2019-05-07T05:04:44.038Z,70.69
2019-05-07T05:05:43.751Z,70.40
2019-05-07T05:06:43.343Z,70.50
2019-05-07T05:07:43.345Z,70.59
2019-05-07T05:08:43.773Z,70.40
2019-05-07T05:09:43.361Z,70.21
2019-05-07T05:10:43.584Z,70.31
2019-05-07T05:11:44.005Z,70.69
2019-05-07T05:12:43.369Z,70.50
2019-05-07T05:13:44.619Z,70.31
2019-05-07T05:14:44.015Z,70.21
2019-05-07T05:15:43.385Z,69.56
2019-05-07T05:16:43.390Z,69.18
2019-05-07T05:17:50.529Z,68.61
2019-05-07T05:18:43.402Z,67.76
2019-05-07T05:19:43.963Z,67.10
2019-05-07T05:20:43.417Z,67.19
2019-05-07T05:21:43.419Z,66.72
2019-05-07T05:22:43.454Z,66.44
2019-05-07T05:23:43.439Z,66.82
2019-05-07T05:24:43.438Z,67.10
2019-05-07T05:25:43.444Z,67.57
2019-05-07T05:26:43.449Z,67.57
2019-05-07T05:27:43.461Z,68.23
2019-05-07T05:28:43.466Z,68.61
2019-05-07T05:29:43.466Z,68.90
2019-05-07T05:30:43.471Z,68.71
2019-05-07T05:31:43.493Z,68.04
2019-05-07T05:32:43.486Z,67.76
2019-05-07T05:33:43.487Z,67.38
2019-05-07T05:34:43.493Z,67.10
2019-05-07T05:35:43.509Z,67.29
2019-05-07T05:36:43.508Z,67.38
2019-05-07T05:37:43.510Z,67.95
2019-05-07T05:38:43.521Z,67.29
2019-05-07T05:39:43.527Z,65.59
2019-05-07T05:40:43.533Z,63.60
2019-05-07T05:41:43.536Z,63.07
2019-05-07T05:42:43.548Z,63.60
2019-05-07T05:43:43.545Z,63.70
2019-05-07T05:44:43.556Z,64.11
2019-05-07T05:45:43.563Z,64.58
2019-05-07T05:46:43.570Z,64.20
2019-05-07T05:47:44.991Z,65.05
2019-05-07T05:48:43.578Z,65.81
2019-05-07T05:49:43.587Z,65.81
2019-05-07T05:50:43.592Z,65.91
2019-05-07T05:51:43.598Z,66.00
2019-05-07T05:52:43.613Z,66.47
2019-05-07T05:53:43.611Z,66.38
2019-05-07T05:54:43.611Z,67.22
2019-05-07T05:55:43.617Z,67.22
2019-05-07T05:56:43.628Z,66.38
2019-05-07T05:57:43.633Z,66.19
2019-05-07T05:58:43.636Z,65.81
2019-05-07T05:59:49.064Z,65.43
2019-05-07T06:00:43.651Z,64.29
2019-05-07T06:01:43.657Z,63.45
2019-05-07T06:02:44.183Z,65.62
2019-05-07T06:03:43.670Z,67.22
2019-05-07T06:04:43.675Z,66.94
2019-05-07T06:05:43.679Z,66.56
2019-05-07T06:06:43.692Z,69.12
2019-05-07T06:07:43.694Z,69.59
2019-05-07T06:08:43.701Z,70.06
2019-05-07T06:09:43.705Z,70.16
2019-05-07T06:10:43.710Z,70.44
2019-05-07T06:11:43.718Z,69.78
2019-05-07T06:12:43.733Z,69.68
2019-05-07T06:13:43.728Z,70.54
2019-05-07T06:14:43.735Z,70.63
2019-05-07T06:15:43.742Z,71.01
2019-05-07T06:16:43.747Z,69.87
2019-05-07T06:17:43.758Z,69.12
2019-05-07T06:18:43.764Z,69.40
2019-05-07T06:19:43.770Z,69.21
2019-05-07T06:20:43.777Z,67.51
2019-05-07T06:21:43.781Z,67.32
2019-05-07T06:22:43.790Z,66.85
2019-05-07T06:23:43.794Z,65.62
2019-05-07T06:24:43.801Z,66.09
2019-05-07T06:25:43.814Z,66.09
2019-05-07T06:26:43.815Z,67.13
2019-05-07T06:27:43.821Z,68.46
2019-05-07T06:28:43.824Z,70.35
2019-05-07T06:29:43.834Z,70.25
2019-05-07T06:30:43.839Z,71.20
2019-05-07T06:31:43.845Z,72.62
2019-05-07T06:32:43.858Z,72.99
2019-05-07T06:33:43.856Z,71.95
2019-05-07T06:34:44.738Z,72.52
2019-05-07T06:35:43.875Z,73.50
2019-05-07T06:36:43.876Z,73.50
2019-05-07T06:37:43.887Z,71.42
2019-05-07T06:38:43.891Z,70.20
2019-05-07T06:39:43.899Z,68.68
2019-05-07T06:40:43.903Z,69.72
2019-05-07T06:41:43.912Z,71.33
2019-05-07T06:42:43.918Z,70.48
2019-05-07T06:43:43.924Z,70.95
2019-05-07T06:44:43.929Z,69.72
2019-05-07T06:45:43.936Z,69.34
2019-05-07T06:46:43.944Z,70.39
2019-05-07T06:47:43.951Z,70.16
2019-05-07T06:48:46.247Z,71.39
2019-05-07T06:49:43.961Z,72.33
2019-05-07T06:50:43.968Z,72.14
2019-05-07T06:51:43.974Z,71.77
2019-05-07T06:52:43.984Z,71.90
2019-05-07T06:53:43.985Z,72.56
2019-05-07T06:54:43.991Z,72.66
2019-05-07T06:55:44.001Z,72.66
2019-05-07T06:56:44.017Z,71.80
2019-05-07T06:57:44.019Z,71.42
2019-05-07T06:58:44.015Z,71.61
2019-05-07T06:59:44.024Z,71.42
2019-05-07T07:00:44.027Z,71.42
2019-05-07T07:01:44.036Z,71.90
2019-05-07T07:02:44.040Z,73.03
2019-05-07T07:03:44.048Z,72.37
2019-05-07T07:04:44.053Z,72.56
2019-05-07T07:05:44.059Z,71.80
2019-05-07T07:06:44.067Z,71.42
2019-05-07T07:07:44.076Z,71.80
2019-05-07T07:08:44.083Z,71.99
2019-05-07T07:09:44.089Z,71.90
2019-05-07T07:10:44.095Z,71.46
2019-05-07T07:11:44.152Z,71.17
2019-05-07T07:12:44.115Z,71.46
2019-05-07T07:13:44.117Z,70.98
2019-05-07T07:14:44.122Z,69.00
2019-05-07T07:15:44.133Z,68.81
2019-05-07T07:16:44.135Z,68.33
2019-05-07T07:17:44.140Z,67.77
2019-05-07T07:18:51.818Z,68.21
2019-05-07T07:19:44.152Z,69.34
2019-05-07T07:20:44.158Z,70.86
2019-05-07T07:21:44.170Z,71.33
2019-05-07T07:22:44.175Z,72.60
2019-05-07T07:23:44.185Z,72.50
2019-05-07T07:24:44.184Z,72.31
2019-05-07T07:25:44.192Z,72.69
2019-05-07T07:26:44.204Z,70.42
2019-05-07T07:27:44.206Z,69.28
2019-05-07T07:28:44.213Z,69.47
2019-05-07T07:29:45.061Z,69.76
2019-05-07T07:30:44.228Z,71.17
2019-05-07T07:31:44.234Z,70.89
2019-05-07T07:32:44.240Z,71.36
2019-05-07T07:33:44.244Z,69.85
2019-05-07T07:34:44.251Z,68.33
2019-05-07T07:35:44.257Z,67.86
2019-05-07T07:36:44.266Z,68.81
2019-05-07T07:37:44.278Z,69.85
2019-05-07T07:38:44.277Z,68.33
2019-05-07T07:39:44.288Z,68.33
2019-05-07T07:40:44.299Z,69.66
2019-05-07T07:41:44.301Z,70.23
2019-05-07T07:42:44.313Z,70.98
2019-05-07T07:43:44.314Z,70.32
2019-05-07T07:44:44.316Z,69.57
2019-05-07T07:45:44.325Z,68.62
2019-05-07T07:46:44.338Z,67.39
2019-05-07T07:47:44.338Z,67.96
2019-05-07T07:48:44.347Z,67.86
2019-05-07T07:49:44.352Z,66.82
2019-05-07T07:50:44.361Z,64.93
2019-05-07T07:51:45.626Z,67.39
2019-05-07T07:52:44.378Z,67.99
2019-05-07T07:53:44.380Z,67.33
2019-05-07T07:54:44.385Z,66.19
2019-05-07T07:55:44.395Z,65.12
2019-05-07T07:56:52.703Z,66.00
2019-05-07T07:57:44.408Z,65.06
2019-05-07T07:58:44.412Z,65.72
2019-05-07T07:59:44.422Z,64.20
2019-05-07T08:00:44.430Z,62.21
2019-05-07T08:01:44.436Z,61.65
2019-05-07T08:02:44.438Z,63.45
2019-05-07T08:03:44.446Z,62.53
2019-05-07T08:04:44.452Z,61.30
2019-05-07T08:05:44.464Z,59.31
2019-05-07T08:06:44.466Z,56.09
2019-05-07T08:07:44.473Z,53.97
2019-05-07T08:08:44.482Z,55.02
2019-05-07T08:09:44.493Z,55.68
2019-05-07T08:10:44.494Z,57.79
2019-05-07T08:11:44.504Z,56.85
2019-05-07T08:12:44.510Z,58.17
2019-05-07T08:13:44.519Z,57.51
2019-05-07T08:14:44.524Z,54.95
2019-05-07T08:15:44.537Z,53.56
2019-05-07T08:16:44.541Z,52.33
2019-05-07T08:17:44.543Z,51.18
2019-05-07T08:18:44.552Z,50.71
2019-05-07T08:19:44.563Z,51.16
2019-05-07T08:20:44.570Z,52.04
2019-05-07T08:21:44.577Z,49.95
2019-05-07T08:22:44.583Z,49.17
2019-05-07T08:23:44.594Z,49.17
2019-05-07T08:24:44.595Z,50.31
2019-05-07T08:25:44.607Z,48.41
2019-05-07T08:26:44.614Z,49.27
2019-05-07T08:27:44.618Z,48.60
2019-05-07T08:28:44.631Z,46.23
2019-05-07T08:29:44.637Z,47.37
2019-05-07T08:30:44.643Z,47.85
2019-05-07T08:31:44.653Z,52.01
2019-05-07T08:32:44.658Z,55.71
2019-05-07T08:33:44.668Z,56.37
2019-05-07T08:34:44.673Z,57.51
2019-05-07T08:35:44.680Z,57.79
2019-05-07T08:36:44.691Z,58.96
2019-05-07T08:37:44.696Z,57.82
2019-05-07T08:38:44.703Z,57.73
2019-05-07T08:39:44.710Z,56.21
2019-05-07T08:40:44.716Z,55.36
2019-05-07T08:41:44.725Z,53.37
2019-05-07T08:42:44.735Z,51.18
2019-05-07T08:43:44.740Z,52.23
2019-05-07T08:44:44.748Z,53.08
2019-05-07T08:45:44.760Z,49.95
2019-05-07T08:46:44.767Z,48.25
2019-05-07T08:47:44.772Z,51.18
2019-05-07T08:48:44.783Z,53.96
2019-05-07T08:49:44.804Z,55.10
2019-05-07T08:50:44.801Z,55.57
2019-05-07T08:51:44.805Z,53.96
2019-05-07T08:52:44.815Z,54.53
2019-05-07T08:53:44.820Z,52.64
2019-05-07T08:54:44.834Z,52.73
2019-05-07T08:55:44.837Z,52.06
2019-05-07T08:56:44.852Z,53.70
2019-05-07T08:57:45.982Z,50.93
2019-05-07T08:58:44.862Z,53.58
2019-05-07T08:59:57.453Z,56.24
2019-05-07T09:00:44.881Z,57.19
2019-05-07T09:01:44.888Z,50.93
2019-05-07T09:02:44.895Z,48.46
2019-05-07T09:03:44.914Z,52.45
2019-05-07T09:04:44.912Z,56.24
2019-05-07T09:05:44.921Z,56.46
2019-05-07T09:06:44.930Z,55.13
2019-05-07T09:07:44.939Z,57.53
2019-05-07T09:08:44.946Z,54.75
2019-05-07T09:09:44.958Z,53.23
2019-05-07T09:10:44.968Z,55.51
2019-05-07T09:11:44.978Z,55.51
2019-05-07T09:12:44.985Z,54.58
2019-05-07T09:13:44.992Z,51.14
2019-05-07T09:14:45.001Z,47.53
2019-05-07T09:15:45.013Z,50.86
2019-05-07T09:16:45.018Z,54.27
2019-05-07T09:17:45.024Z,54.37
2019-05-07T09:18:45.034Z,55.25
2019-05-07T09:19:51.534Z,55.06
2019-05-07T09:20:45.051Z,54.02
2019-05-07T09:21:45.061Z,51.83
2019-05-07T09:22:45.072Z,50.20
2019-05-07T09:23:45.080Z,50.98
2019-05-07T09:24:45.099Z,51.36
2019-05-07T09:25:45.098Z,52.40
2019-05-07T09:26:45.107Z,52.69
2019-05-07T09:27:45.117Z,49.37
2019-05-07T09:28:45.126Z,48.70
2019-05-07T09:29:45.142Z,50.12
2019-05-07T09:30:45.145Z,53.07
2019-05-07T09:31:45.159Z,48.44
2019-05-07T09:32:45.163Z,51.76
2019-05-07T09:33:45.172Z,46.35
2019-05-07T09:34:45.182Z,47.02
2019-05-07T09:35:45.196Z,48.44
2019-05-07T09:36:45.201Z,42.08
2019-05-07T09:37:45.213Z,41.69
2019-05-07T09:38:56.108Z,40.94
2019-05-07T09:39:45.235Z,48.06
2019-05-07T09:40:45.251Z,42.82
2019-05-07T09:41:45.252Z,47.56
2019-05-07T09:42:45.263Z,50.81
2019-05-07T09:43:45.282Z,49.58
2019-05-07T09:44:45.289Z,49.77
2019-05-07T09:45:45.291Z,45.78
2019-05-07T09:46:46.707Z,42.10
2019-05-07T09:47:45.310Z,46.00
2019-05-07T09:48:45.317Z,49.41
2019-05-07T09:49:45.330Z,44.54
2019-05-07T09:50:45.339Z,40.48
2019-05-07T09:51:45.354Z,40.29
2019-05-07T09:52:45.355Z,42.86
2019-05-07T09:53:45.366Z,45.26
2019-05-07T09:54:45.380Z,35.08
2019-05-07T09:55:45.395Z,35.75
2019-05-07T09:56:45.401Z,36.41
2019-05-07T09:57:45.410Z,38.05
2019-05-07T09:58:45.417Z,37.67
2019-05-07T09:59:45.431Z,37.57
2019-05-07T10:00:45.438Z,39.09
2019-05-07T10:01:45.452Z,33.96
2019-05-07T10:02:45.465Z,32.43
2019-05-07T10:03:45.469Z,34.42
2019-05-07T10:04:45.487Z,37.35
2019-05-07T10:05:45.493Z,43.07
2019-05-07T10:06:45.500Z,38.58
2019-05-07T10:07:45.513Z,38.89
2019-05-07T10:08:45.527Z,43.16
2019-05-07T10:09:45.534Z,42.12
2019-05-07T10:10:45.543Z,39.93
2019-05-07T10:11:45.554Z,40.59
2019-05-07T10:12:45.570Z,40.88
2019-05-07T10:13:45.574Z,37.38
2019-05-07T10:14:45.585Z,37.00
2019-05-07T10:15:45.602Z,36.91
2019-05-07T10:16:45.609Z,39.31
2019-05-07T10:17:45.623Z,39.31
2019-05-07T10:18:45.634Z,34.05
2019-05-07T10:19:45.641Z,34.05
2019-05-07T10:20:45.653Z,37.48
2019-05-07T10:21:45.663Z,36.45
2019-05-07T10:22:45.674Z,34.64
2019-05-07T10:23:45.686Z,35.40
2019-05-07T10:24:45.698Z,34.81
2019-05-07T10:25:45.707Z,34.34
2019-05-07T10:26:45.722Z,38.64
2019-05-07T10:27:45.730Z,36.16
2019-05-07T10:28:45.745Z,33.56
2019-05-07T10:29:45.755Z,34.53
2019-05-07T10:30:45.765Z,40.35
2019-05-07T10:31:45.776Z,36.35
2019-05-07T10:32:45.796Z,37.12
2019-05-07T10:33:45.798Z,37.40
2019-05-07T10:34:45.817Z,36.05
2019-05-07T10:35:45.823Z,36.15
2019-05-07T10:36:45.838Z,35.00
2019-05-07T10:37:45.845Z,34.53
2019-05-07T10:38:45.860Z,35.21
2019-05-07T10:39:45.870Z,34.64
2019-05-07T10:40:45.881Z,32.83
2019-05-07T10:41:45.898Z,35.89
2019-05-07T10:42:45.907Z,31.90
2019-05-07T10:43:45.920Z,32.37
2019-05-07T10:44:45.928Z,33.80
2019-05-07T10:45:45.941Z,33.04
2019-05-07T10:46:45.954Z,34.18
2019-05-07T10:47:45.969Z,30.47
2019-05-07T10:48:45.976Z,30.94
2019-05-07T10:49:45.987Z,31.80
2019-05-07T10:50:46.006Z,29.04
2019-05-07T10:51:46.013Z,28.64
2019-05-07T10:52:46.029Z,30.74
2019-05-07T10:53:46.041Z,29.60
2019-05-07T10:54:56.695Z,30.47
2019-05-07T10:55:46.064Z,28.36
2019-05-07T10:56:46.076Z,29.60
2019-05-07T10:57:46.086Z,28.92
2019-05-07T10:58:46.098Z,31.20
2019-05-07T10:59:46.111Z,29.86
2019-05-07T11:00:46.127Z,31.79
2019-05-07T11:01:46.139Z,29.69
2019-05-07T11:02:46.151Z,29.33
2019-05-07T11:03:46.165Z,31.71
2019-05-07T11:04:46.178Z,29.80
2019-05-07T11:05:46.192Z,29.25
2019-05-07T11:06:46.196Z,27.33
2019-05-07T11:07:46.212Z,27.61
2019-05-07T11:08:46.225Z,25.81
2019-05-07T11:09:46.237Z,27.15
2019-05-07T11:10:46.258Z,27.71
2019-05-07T11:11:46.260Z,28.29
2019-05-07T11:12:46.273Z,31.05
2019-05-07T11:13:46.289Z,30.40
2019-05-07T11:14:46.299Z,28.12
2019-05-07T11:15:46.317Z,25.73
2019-05-07T11:16:46.324Z,25.61
2019-05-07T11:17:46.337Z,28.96
2019-05-07T11:18:46.355Z,28.38
2019-05-07T11:19:46.367Z,28.09
2019-05-07T11:20:50.331Z,29.91
2019-05-07T11:21:46.392Z,32.39
2019-05-07T11:22:46.405Z,29.45
2019-05-07T11:23:46.422Z,28.88
2019-05-07T11:24:46.430Z,26.86
2019-05-07T11:25:46.445Z,27.33
2019-05-07T11:26:46.459Z,28.47
2019-05-07T11:27:46.474Z,29.61
2019-05-07T11:28:46.486Z,29.63
2019-05-07T11:29:46.497Z,29.91
2019-05-07T11:30:46.508Z,29.25
2019-05-07T11:31:46.527Z,28.66
2019-05-07T11:32:46.539Z,28.94
2019-05-07T11:33:46.558Z,31.24
2019-05-07T11:34:46.566Z,30.79
2019-05-07T11:35:46.577Z,28.77
2019-05-07T11:36:46.615Z,27.80
2019-05-07T11:37:46.603Z,31.15
2019-05-07T11:38:46.624Z,28.19
2019-05-07T11:39:46.634Z,28.19
2019-05-07T11:40:46.644Z,27.99
2019-05-07T11:41:46.655Z,34.03
2019-05-07T11:42:46.669Z,27.55
2019-05-07T11:43:46.688Z,24.96
2019-05-07T11:44:46.700Z,26.40
2019-05-07T11:45:46.709Z,24.88
2019-05-07T11:46:46.728Z,22.56
2019-05-07T11:47:46.737Z,25.71
2019-05-07T11:48:46.751Z,26.20
2019-05-07T11:49:46.765Z,24.87
2019-05-07T11:50:59.653Z,24.87
2019-05-07T11:51:46.796Z,24.96
2019-05-07T11:52:46.808Z,26.68
2019-05-07T11:53:46.822Z,25.83
2019-05-07T11:54:46.832Z,23.36
2019-05-07T11:55:46.846Z,21.17
2019-05-07T11:56:46.861Z,23.74
2019-05-07T11:57:46.885Z,24.03
2019-05-07T11:58:46.888Z,21.93
2019-05-07T11:59:46.902Z,24.32
2019-05-07T12:00:46.922Z,22.50
2019-05-07T12:01:47.990Z,25.56
2019-05-07T12:02:47.310Z,27.86
2019-05-07T12:03:46.963Z,24.14
2019-05-07T12:04:46.975Z,23.09
2019-05-07T12:05:46.990Z,23.09
2019-05-07T12:06:47.002Z,24.51
2019-05-07T12:07:47.018Z,24.33
2019-05-07T12:08:51.856Z,26.82
2019-05-07T12:09:47.050Z,23.77
2019-05-07T12:10:47.061Z,24.90
2019-05-07T12:11:47.073Z,23.55
2019-05-07T12:12:47.089Z,21.45
2019-05-07T12:13:47.105Z,22.79
2019-05-07T12:14:47.120Z,24.90
2019-05-07T12:15:47.135Z,25.09
2019-05-07T12:16:47.153Z,25.77
2019-05-07T12:17:47.160Z,23.28
2019-05-07T12:18:47.177Z,23.74
2019-05-07T12:19:47.196Z,23.73
2019-05-07T12:20:47.207Z,24.59
2019-05-07T12:21:47.221Z,25.08
2019-05-07T12:22:47.243Z,25.57
2019-05-07T12:23:47.249Z,26.43
2019-05-07T12:24:47.264Z,25.10
2019-05-07T12:25:47.280Z,24.44
2019-05-07T12:26:47.297Z,24.35
2019-05-07T12:27:47.314Z,21.87
2019-05-07T12:28:47.323Z,20.52
2019-05-07T12:29:47.337Z,19.65
2019-05-07T12:30:47.353Z,20.89
2019-05-07T12:31:47.385Z,21.17
2019-05-07T12:32:47.381Z,22.23
2019-05-07T12:33:47.398Z,23.47
2019-05-07T12:34:47.420Z,23.48
2019-05-07T12:35:47.430Z,22.89
2019-05-07T12:36:47.446Z,23.64
2019-05-07T12:37:49.544Z,26.70
2019-05-07T12:38:47.476Z,26.33
2019-05-07T12:39:47.487Z,25.67
2019-05-07T12:40:47.506Z,25.67
2019-05-07T12:41:47.523Z,23.63
2019-05-07T12:42:47.533Z,24.88
2019-05-07T12:43:47.547Z,26.59
2019-05-07T12:44:47.561Z,26.88
2019-05-07T12:45:47.577Z,25.64
2019-05-07T12:46:47.595Z,28.23
2019-05-07T12:47:47.612Z,29.77
2019-05-07T12:48:47.628Z,24.80
2019-05-07T12:49:47.635Z,28.92
2019-05-07T12:50:47.651Z,28.08
2019-05-07T12:51:47.670Z,27.80
2019-05-07T12:52:47.683Z,27.42